Aérodrome :
LOGIN :

S'inscrire | Disclaimer

   EN    FR    IT 

 










Légende :    VFR   VFR Marginal   IFR   IFR Intensif   IFR Très Intensif
Visi : 
Plafond : 
>= 8 km
>= 3000ft
5 à 8 km
1000 à 3000 ft
1500m à 5 km
500 à 1000 ft
800 à 1500m
200 à 500 ft
< 800m
< 200 ft
Symboles :   Orages  Brouillard  Fortes neiges  Fortes précipitations  Vent > 20 kt
SIGMETs :   Divers  Orages  Givrage  Turbulence  Onde Orograph.  Cendres Volcan.






- Altitude de l'aérodrome : 287 ft


LFRL - Lanveoc Poulmic

DERNIER METAR :
  • 100430Z AUTO 07006KT 8000 NSC 11/09 Q1019

METARs EXPIRÉS :
  • 100400Z AUTO 07004KT CAVOK 11/09 Q1019
  • 100330Z AUTO 07005KT 9000 NSC 11/09 Q1019
  • 100300Z AUTO 06005KT 8000 NSC 13/09 Q1019
  • 100230Z AUTO 06005KT 9000 NSC 13/09 Q1020

TAF TAF LFRL
Valide du 09 à 12h jusqu'au 10 à 12h UTC


091100Z 0912/1012 VRB05KT CAVOK
BECMG 1006/1009 12010KT



MET'MAP, la Météo Aéronautique d'un coup d'oeil ! - Copyright ORBIFLY Décembre 2007 - Disclaimer

ORBIFLY MET'MAP TEAM :

Programmation & Développement : Alexandra Zaïnal
Sur une idée originale de : Baudouin d'Aumeries
Assistance à la programmation : Marc-Olivier Méhu
Soutien technique & logistique : Manuel Goepfert

Contact : metmap@orbifly.com




SOURCES & CREDITS :

   NOAA